createdAt,value
2023-02-08T00:00:07.519Z,20.47
2023-02-08T00:01:39.757Z,13.23
2023-02-08T00:03:15.618Z,17.95
2023-02-08T00:04:47.703Z,16.83
2023-02-08T00:06:19.850Z,17.00
2023-02-08T00:07:51.904Z,23.25
2023-02-08T00:09:24.064Z,17.42
2023-02-08T00:10:56.339Z,15.90
2023-02-08T00:12:28.660Z,17.05
2023-02-08T00:14:00.869Z,16.23
2023-02-08T00:15:33.203Z,14.48
2023-02-08T00:17:05.294Z,15.50
2023-02-08T00:18:37.849Z,14.88
2023-02-08T00:20:10.930Z,16.42
2023-02-08T00:21:43.086Z,17.92
2023-02-08T00:23:15.858Z,17.50
2023-02-08T00:24:47.903Z,14.38
2023-02-08T00:26:20.494Z,16.00
2023-02-08T00:27:52.778Z,15.10
2023-02-08T00:29:24.984Z,16.33
2023-02-08T00:30:57.601Z,16.10
2023-02-08T00:32:29.781Z,16.17
2023-02-08T00:34:01.853Z,16.38
2023-02-08T00:35:34.689Z,17.70
2023-02-08T00:37:07.395Z,10.13
2023-02-08T00:38:39.431Z,17.15
2023-02-08T00:40:12.385Z,17.60
2023-02-08T00:43:16.640Z,18.75
2023-02-08T00:44:48.672Z,17.30
2023-02-08T00:46:21.013Z,14.83
2023-02-08T00:47:54.860Z,18.55
2023-02-08T00:49:27.072Z,15.57
2023-02-08T00:50:59.074Z,19.45
2023-02-08T00:52:31.201Z,18.60
2023-02-08T00:54:03.399Z,15.77
2023-02-08T00:55:35.524Z,15.00
2023-02-08T00:57:08.112Z,13.52
2023-02-08T00:58:40.374Z,13.85
2023-02-08T01:00:13.137Z,17.08
2023-02-08T01:03:17.272Z,14.07
2023-02-08T01:04:49.437Z,14.18
2023-02-08T01:06:21.661Z,13.10
2023-02-08T01:07:54.088Z,15.07
2023-02-08T01:09:26.421Z,19.65
2023-02-08T01:12:38.494Z,16.00
2023-02-08T01:14:11.550Z,21.05
2023-02-08T01:15:43.980Z,18.83
2023-02-08T01:17:16.241Z,18.75
2023-02-08T01:18:51.690Z,14.75
2023-02-08T01:20:24.511Z,16.23
2023-02-08T01:21:57.034Z,15.05
2023-02-08T01:23:29.175Z,14.05
2023-02-08T01:26:35.442Z,14.70
2023-02-08T01:28:11.192Z,15.20
2023-02-08T01:29:43.441Z,17.08
2023-02-08T01:31:18.211Z,14.95
2023-02-08T01:32:50.342Z,15.35
2023-02-08T01:34:22.443Z,14.95
2023-02-08T01:35:54.712Z,18.13
2023-02-08T01:37:28.514Z,14.45
2023-02-08T01:39:01.271Z,15.38
2023-02-08T01:40:33.346Z,16.80
2023-02-08T01:42:05.378Z,18.83
2023-02-08T01:44:09.814Z,11.43
2023-02-08T01:45:42.182Z,18.40
2023-02-08T01:47:14.304Z,16.80
2023-02-08T01:48:46.382Z,16.15
2023-02-08T01:50:21.539Z,14.85
2023-02-08T01:52:14.239Z,16.98
2023-02-08T01:53:46.796Z,16.92
2023-02-08T01:55:23.860Z,17.77
2023-02-08T01:56:56.063Z,14.95
2023-02-08T01:58:29.713Z,17.27
2023-02-08T02:00:05.675Z,16.50
2023-02-08T02:01:47.143Z,17.13
2023-02-08T02:03:21.320Z,14.13
2023-02-08T02:04:53.826Z,15.15
2023-02-08T02:06:30.363Z,17.73
2023-02-08T02:08:02.637Z,18.58
2023-02-08T02:09:39.220Z,18.92
2023-02-08T02:11:11.284Z,18.17
2023-02-08T02:12:44.194Z,18.55
2023-02-08T02:14:16.453Z,17.50
2023-02-08T02:15:51.584Z,18.27
2023-02-08T02:18:55.644Z,17.80
2023-02-08T02:20:41.450Z,18.10
2023-02-08T02:22:31.587Z,20.00
2023-02-08T02:24:13.991Z,17.88
2023-02-08T02:26:11.815Z,20.95
2023-02-08T02:27:46.799Z,17.80
2023-02-08T02:29:31.005Z,17.30
2023-02-08T02:31:24.371Z,16.10
2023-02-08T02:33:16.695Z,19.45
2023-02-08T02:35:11.683Z,18.45
2023-02-08T02:36:58.828Z,17.70
2023-02-08T02:39:17.336Z,18.67
2023-02-08T02:40:51.761Z,18.30
2023-02-08T02:42:49.550Z,19.05
2023-02-08T02:44:33.463Z,15.18
2023-02-08T02:46:40.939Z,17.67
2023-02-08T02:48:32.201Z,20.40
2023-02-08T02:50:04.221Z,20.33
2023-02-08T02:51:39.342Z,19.90
2023-02-08T02:53:18.231Z,17.42
2023-02-08T02:54:52.683Z,17.65
2023-02-08T02:56:46.636Z,15.48
2023-02-08T02:58:20.124Z,16.33
2023-02-08T02:59:52.305Z,17.08
2023-02-08T03:01:26.370Z,19.35
2023-02-08T03:02:59.393Z,18.40
2023-02-08T03:04:34.767Z,22.27
2023-02-08T03:06:11.546Z,17.63
2023-02-08T03:08:11.022Z,19.85
2023-02-08T03:10:01.035Z,19.10
2023-02-08T03:11:35.070Z,19.05
2023-02-08T03:13:37.790Z,16.08
2023-02-08T03:15:43.938Z,15.95
2023-02-08T03:17:23.011Z,19.33
2023-02-08T03:19:25.920Z,20.08
2023-02-08T03:21:16.025Z,19.05
2023-02-08T03:23:14.106Z,17.85
2023-02-08T03:24:55.651Z,18.40
2023-02-08T03:26:37.772Z,16.42
2023-02-08T03:28:20.987Z,15.05
2023-02-08T03:30:04.495Z,20.45
2023-02-08T03:31:47.289Z,18.13
2023-02-08T03:33:25.731Z,20.00
2023-02-08T03:35:17.117Z,19.38
2023-02-08T03:36:53.608Z,19.55
2023-02-08T03:38:30.157Z,20.08
2023-02-08T03:40:08.357Z,19.85
2023-02-08T03:41:43.287Z,17.98
2023-02-08T03:43:19.643Z,19.92
2023-02-08T03:45:09.827Z,19.00
2023-02-08T03:46:46.711Z,18.02
2023-02-08T03:48:20.497Z,18.83
2023-02-08T03:49:54.231Z,18.60
2023-02-08T03:51:28.013Z,16.00
2023-02-08T03:53:04.722Z,17.27
2023-02-08T03:54:47.558Z,17.08
2023-02-08T03:56:35.045Z,19.98
2023-02-08T03:58:09.313Z,21.02
2023-02-08T03:59:44.652Z,14.00
2023-02-08T04:01:24.279Z,18.08
2023-02-08T04:03:07.138Z,16.85
2023-02-08T04:04:42.635Z,18.92
2023-02-08T04:06:14.782Z,18.35
2023-02-08T04:07:46.836Z,19.00
2023-02-08T04:09:21.549Z,16.20
2023-02-08T04:10:54.024Z,16.77
2023-02-08T04:12:26.080Z,18.45
2023-02-08T04:13:58.254Z,18.88
2023-02-08T04:15:31.284Z,18.63
2023-02-08T04:18:35.778Z,21.63
2023-02-08T04:20:08.632Z,13.82
2023-02-08T04:23:12.595Z,18.45
2023-02-08T04:24:44.802Z,17.70
2023-02-08T04:26:16.804Z,16.80
2023-02-08T04:27:48.922Z,18.10
2023-02-08T04:29:21.055Z,14.85
2023-02-08T04:30:58.361Z,15.80
2023-02-08T04:32:30.443Z,23.27
2023-02-08T04:34:03.105Z,18.08
2023-02-08T04:35:35.262Z,18.35
2023-02-08T04:37:08.440Z,16.80
2023-02-08T04:38:40.507Z,17.70
2023-02-08T04:40:13.141Z,14.70
2023-02-08T04:41:45.143Z,18.45
2023-02-08T04:43:17.418Z,19.65
2023-02-08T04:44:49.518Z,18.52
2023-02-08T04:46:21.641Z,15.18
2023-02-08T04:47:54.300Z,12.43
2023-02-08T04:49:26.548Z,14.63
2023-02-08T04:50:59.287Z,17.13
2023-02-08T04:52:31.420Z,17.67
2023-02-08T04:54:03.544Z,22.45
2023-02-08T04:55:35.715Z,16.80
2023-02-08T04:57:08.104Z,18.27
2023-02-08T04:58:40.163Z,12.05
2023-02-08T05:00:13.132Z,15.02
2023-02-08T05:03:17.265Z,17.38
2023-02-08T05:04:49.350Z,17.25
2023-02-08T05:06:21.558Z,13.43
2023-02-08T05:07:53.718Z,17.52
2023-02-08T05:09:25.844Z,20.02
2023-02-08T05:10:58.395Z,12.73
2023-02-08T05:12:30.546Z,16.55
2023-02-08T05:14:03.453Z,16.83
2023-02-08T05:15:35.458Z,16.27
2023-02-08T05:17:07.517Z,16.25
2023-02-08T05:18:39.828Z,16.73
2023-02-08T05:20:12.750Z,16.15
2023-02-08T05:21:44.814Z,16.67
2023-02-08T05:23:16.883Z,14.35
2023-02-08T05:24:48.982Z,12.15
2023-02-08T05:26:21.089Z,15.77
2023-02-08T05:27:53.683Z,15.38
2023-02-08T05:29:25.918Z,17.48
2023-02-08T05:30:58.247Z,17.85
2023-02-08T05:32:30.362Z,11.63
2023-02-08T05:34:02.531Z,19.90
2023-02-08T05:35:36.813Z,16.65
2023-02-08T05:37:08.953Z,16.35
2023-02-08T05:38:40.955Z,15.45
2023-02-08T05:40:13.596Z,22.33
2023-02-08T05:41:45.661Z,19.45
2023-02-08T05:43:17.742Z,18.25
2023-02-08T05:44:50.146Z,17.48
2023-02-08T05:46:22.343Z,17.77
2023-02-08T05:47:54.461Z,16.98
2023-02-08T05:49:26.673Z,16.88
2023-02-08T05:50:59.965Z,18.40
2023-02-08T05:52:32.385Z,14.40
2023-02-08T05:54:04.506Z,12.27
2023-02-08T05:55:36.665Z,20.60
2023-02-08T05:57:08.909Z,16.98
2023-02-08T05:58:41.618Z,17.45
2023-02-08T06:00:14.630Z,16.27
2023-02-08T06:01:49.733Z,17.55
2023-02-08T06:03:21.960Z,15.70
2023-02-08T06:04:54.041Z,15.50
2023-02-08T06:06:26.263Z,16.42
2023-02-08T06:08:01.641Z,14.68
2023-02-08T06:09:33.795Z,15.98
2023-02-08T06:11:06.770Z,16.02
2023-02-08T06:14:10.988Z,15.73
2023-02-08T06:15:45.437Z,16.63
2023-02-08T06:17:17.454Z,16.30
2023-02-08T06:18:49.664Z,22.55
2023-02-08T06:20:22.122Z,17.40
2023-02-08T06:21:54.213Z,16.92
2023-02-08T06:23:26.174Z,38.95
2023-02-08T06:24:58.275Z,39.23
2023-02-08T06:26:30.335Z,23.65
2023-02-08T06:28:03.529Z,20.63
2023-02-08T06:29:35.683Z,20.65
2023-02-08T06:31:07.714Z,20.90
2023-02-08T06:32:39.870Z,18.67
2023-02-08T06:34:12.061Z,19.58
2023-02-08T06:35:48.465Z,17.33
2023-02-08T06:37:20.501Z,16.48
2023-02-08T06:38:52.563Z,19.45
2023-02-08T06:40:25.251Z,18.13
2023-02-08T06:41:57.885Z,18.35
2023-02-08T06:43:29.992Z,17.58
2023-02-08T06:45:02.142Z,15.50
2023-02-08T06:46:34.205Z,19.77
2023-02-08T06:48:06.785Z,20.10
2023-02-08T06:49:38.824Z,19.20
2023-02-08T06:51:10.942Z,16.88
2023-02-08T06:52:43.168Z,17.35
2023-02-08T06:54:15.883Z,22.92
2023-02-08T06:55:49.526Z,18.70
2023-02-08T06:57:23.087Z,18.30
2023-02-08T06:58:56.817Z,19.73
2023-02-08T07:00:29.051Z,18.83
2023-02-08T07:02:01.509Z,14.63
2023-02-08T07:03:33.913Z,17.95
2023-02-08T07:05:06.265Z,13.95
2023-02-08T07:06:38.420Z,17.30
2023-02-08T07:08:10.549Z,18.67
2023-02-08T07:09:42.833Z,14.43
2023-02-08T07:11:17.881Z,16.20
2023-02-08T07:12:50.042Z,16.25
2023-02-08T07:14:22.119Z,19.08
2023-02-08T07:15:54.269Z,20.30
2023-02-08T07:17:26.395Z,19.83
2023-02-08T07:18:58.889Z,20.55
2023-02-08T07:20:31.108Z,15.85
2023-02-08T07:22:08.453Z,21.50
2023-02-08T07:23:41.033Z,17.98
2023-02-08T07:25:16.556Z,16.77
2023-02-08T07:26:49.208Z,18.38
2023-02-08T07:28:21.523Z,20.27
2023-02-08T07:29:53.556Z,15.88
2023-02-08T07:31:25.757Z,19.83
2023-02-08T07:32:59.287Z,16.92
2023-02-08T07:34:33.595Z,16.52
2023-02-08T07:36:09.256Z,20.50
2023-02-08T07:37:41.558Z,17.25
2023-02-08T07:39:14.146Z,16.38
2023-02-08T07:40:48.808Z,18.02
2023-02-08T07:42:23.413Z,17.25
2023-02-08T07:44:08.183Z,21.08
2023-02-08T07:45:40.952Z,16.25
2023-02-08T07:47:19.866Z,20.77
2023-02-08T07:48:54.478Z,17.33
2023-02-08T07:50:26.795Z,18.08
2023-02-08T07:52:02.239Z,11.50
2023-02-08T07:53:37.729Z,15.77
2023-02-08T07:55:17.246Z,17.58
2023-02-08T07:56:49.752Z,17.48
2023-02-08T07:58:25.376Z,16.38
2023-02-08T08:00:00.721Z,18.88
2023-02-08T08:01:32.883Z,20.55
2023-02-08T08:03:05.183Z,17.10
2023-02-08T08:04:37.598Z,17.95
2023-02-08T08:06:12.374Z,18.08
2023-02-08T08:07:56.486Z,16.92
2023-02-08T08:09:42.015Z,15.57
2023-02-08T08:11:15.754Z,18.15
2023-02-08T08:12:51.082Z,19.83
2023-02-08T08:14:26.103Z,17.90
2023-02-08T08:15:58.816Z,15.77
2023-02-08T08:17:33.634Z,18.55
2023-02-08T08:19:12.266Z,19.00
2023-02-08T08:20:46.262Z,17.73
2023-02-08T08:22:19.692Z,16.55
2023-02-08T08:24:04.295Z,14.10
2023-02-08T08:25:39.196Z,15.45
2023-02-08T08:27:14.990Z,15.77
2023-02-08T08:28:47.762Z,19.08
2023-02-08T08:30:21.049Z,15.55
2023-02-08T08:31:54.652Z,13.98
2023-02-08T08:33:27.101Z,18.42
2023-02-08T08:35:02.316Z,19.30
2023-02-08T08:36:34.477Z,17.00
2023-02-08T08:38:07.103Z,15.95
2023-02-08T08:39:42.485Z,21.65
2023-02-08T08:41:18.253Z,18.10
2023-02-08T08:42:50.486Z,16.83
2023-02-08T08:44:22.748Z,17.35
2023-02-08T08:45:55.191Z,16.17
2023-02-08T08:47:27.455Z,19.92
2023-02-08T08:49:00.057Z,17.40
2023-02-08T08:50:32.319Z,17.58
2023-02-08T08:52:13.664Z,15.13
2023-02-08T08:53:48.309Z,19.45
2023-02-08T08:55:22.598Z,18.15
2023-02-08T08:57:05.232Z,17.25
2023-02-08T08:58:37.495Z,19.05
2023-02-08T09:00:10.619Z,16.05
2023-02-08T09:01:45.292Z,14.45
2023-02-08T09:03:20.527Z,13.65
2023-02-08T09:04:55.312Z,13.75
2023-02-08T09:06:28.434Z,18.63
2023-02-08T09:08:18.766Z,20.27
2023-02-08T09:09:51.714Z,15.43
2023-02-08T09:11:23.961Z,17.40
2023-02-08T09:12:56.503Z,15.95
2023-02-08T09:14:28.906Z,16.92
2023-02-08T09:16:08.616Z,15.35
2023-02-08T09:17:40.792Z,18.38
2023-02-08T09:19:13.261Z,15.00
2023-02-08T09:20:45.914Z,13.57
2023-02-08T09:22:19.040Z,16.38
2023-02-08T09:23:51.431Z,20.40
2023-02-08T09:25:23.633Z,18.13
2023-02-08T09:26:55.865Z,15.18
2023-02-08T09:28:28.005Z,16.55
2023-02-08T09:30:00.340Z,14.73
2023-02-08T09:31:36.785Z,16.88
2023-02-08T09:33:09.171Z,14.65
2023-02-08T09:34:41.319Z,12.70
2023-02-08T09:36:14.184Z,11.27
2023-02-08T09:37:47.574Z,13.73
2023-02-08T09:39:23.778Z,17.00
2023-02-08T09:41:19.040Z,16.17
2023-02-08T09:43:23.390Z,12.50
2023-02-08T09:45:21.449Z,16.30
2023-02-08T09:47:10.312Z,16.80
2023-02-08T09:48:45.931Z,12.73
2023-02-08T09:50:23.979Z,13.50
2023-02-08T09:52:03.482Z,15.27
2023-02-08T09:53:39.955Z,15.57
2023-02-08T09:55:24.024Z,14.60
2023-02-08T09:57:01.656Z,14.65
2023-02-08T09:58:37.393Z,14.70
2023-02-08T10:00:19.799Z,11.10
2023-02-08T10:01:58.411Z,17.38
2023-02-08T10:03:39.545Z,14.35
2023-02-08T10:05:18.116Z,13.55
2023-02-08T10:06:55.586Z,13.73
2023-02-08T10:08:34.880Z,16.35
2023-02-08T10:10:14.953Z,12.80
2023-02-08T10:12:03.209Z,13.27
2023-02-08T10:13:44.461Z,11.18
2023-02-08T10:17:27.956Z,13.40
2023-02-08T10:19:30.119Z,11.88
2023-02-08T10:21:22.772Z,11.07
2023-02-08T10:23:20.579Z,14.45
2023-02-08T10:24:56.736Z,12.98
2023-02-08T10:26:44.336Z,13.90
2023-02-08T10:28:41.212Z,15.20
2023-02-08T10:30:39.058Z,11.95
2023-02-08T10:32:50.680Z,14.32
2023-02-08T10:34:46.106Z,15.68
2023-02-08T10:36:22.225Z,10.75
2023-02-08T10:38:00.441Z,14.77
2023-02-08T10:39:35.662Z,13.80
2023-02-08T10:41:08.262Z,12.88
2023-02-08T10:42:41.511Z,12.85
2023-02-08T10:44:42.915Z,12.60
2023-02-08T10:46:38.881Z,14.63
2023-02-08T10:48:19.380Z,14.10
2023-02-08T10:49:58.607Z,12.38
2023-02-08T10:51:31.419Z,14.23
2023-02-08T10:54:36.258Z,13.98
2023-02-08T10:56:19.226Z,12.48
2023-02-08T10:57:55.774Z,9.90
2023-02-08T10:59:28.765Z,15.77
2023-02-08T11:02:41.846Z,14.00
2023-02-08T11:04:14.887Z,11.82
2023-02-08T11:05:47.660Z,9.85
2023-02-08T11:08:56.881Z,11.63
2023-02-08T11:10:29.260Z,9.75
2023-02-08T11:12:04.601Z,13.05
2023-02-08T11:13:43.899Z,7.57
2023-02-08T11:15:38.176Z,9.00
2023-02-08T11:17:34.177Z,10.10
2023-02-08T11:19:08.209Z,10.90
2023-02-08T11:20:40.623Z,9.27
2023-02-08T11:22:16.735Z,8.43
2023-02-08T11:23:52.111Z,9.02
2023-02-08T11:25:35.725Z,9.13
2023-02-08T11:27:32.808Z,11.57
2023-02-08T11:29:23.525Z,8.27
2023-02-08T11:31:04.138Z,12.45
2023-02-08T11:32:37.218Z,11.32
2023-02-08T11:34:11.708Z,9.38
2023-02-08T11:35:44.233Z,10.05
2023-02-08T11:37:28.814Z,9.38
2023-02-08T11:39:16.982Z,9.90
2023-02-08T11:40:49.226Z,8.68
2023-02-08T11:42:25.844Z,11.13
2023-02-08T11:44:05.098Z,8.38
2023-02-08T11:45:37.721Z,8.65
2023-02-08T11:47:11.150Z,10.15
2023-02-08T11:48:49.915Z,12.13
2023-02-08T11:50:32.882Z,7.20
2023-02-08T11:52:06.764Z,7.95
2023-02-08T11:53:43.294Z,12.23
2023-02-08T11:55:27.409Z,8.93
2023-02-08T11:57:04.103Z,9.32
2023-02-08T11:58:36.260Z,9.45
2023-02-08T12:00:26.768Z,10.52
2023-02-08T12:01:58.953Z,10.38
2023-02-08T12:03:39.082Z,10.57
2023-02-08T12:05:15.247Z,9.25
2023-02-08T12:06:49.960Z,8.98
2023-02-08T12:08:52.619Z,10.45
2023-02-08T12:10:47.981Z,10.40
2023-02-08T12:12:39.862Z,10.52
2023-02-08T12:14:20.884Z,9.68
2023-02-08T12:16:22.189Z,9.15
2023-02-08T12:18:28.203Z,13.85
2023-02-08T12:20:23.752Z,9.82
2023-02-08T12:22:42.166Z,10.98
2023-02-08T12:24:41.706Z,9.40
2023-02-08T12:26:13.731Z,9.18
2023-02-08T12:28:03.643Z,9.40
2023-02-08T12:29:54.254Z,9.38
2023-02-08T12:32:03.386Z,10.23
2023-02-08T12:33:41.110Z,9.32
2023-02-08T12:35:40.162Z,11.25
2023-02-08T12:37:52.517Z,10.68
2023-02-08T12:39:58.021Z,10.00
2023-02-08T12:41:43.130Z,9.55
2023-02-08T12:43:50.910Z,6.18
2023-02-08T12:45:34.224Z,10.00
2023-02-08T12:47:22.228Z,7.55
2023-02-08T12:49:20.204Z,6.93
2023-02-08T12:50:54.776Z,6.85
2023-02-08T12:52:32.265Z,7.05
2023-02-08T12:54:11.056Z,6.93
2023-02-08T12:55:44.566Z,8.30
2023-02-08T12:57:19.831Z,13.85
2023-02-08T12:59:08.085Z,10.00
2023-02-08T13:00:45.069Z,7.03
2023-02-08T13:02:25.918Z,10.60
2023-02-08T13:06:08.662Z,6.95
2023-02-08T13:07:43.262Z,6.60
2023-02-08T13:09:22.560Z,7.32
2023-02-08T13:11:05.496Z,7.05
2023-02-08T13:12:46.623Z,5.15
2023-02-08T13:14:30.560Z,6.63
2023-02-08T13:16:10.545Z,7.70
2023-02-08T13:18:11.385Z,5.38
2023-02-08T13:20:04.029Z,5.07
2023-02-08T13:21:42.276Z,4.80
2023-02-08T13:23:25.836Z,4.28
2023-02-08T13:25:06.789Z,7.60
2023-02-08T13:26:40.792Z,8.88
2023-02-08T13:28:19.447Z,8.88
2023-02-08T13:29:53.139Z,4.97
2023-02-08T13:31:27.966Z,7.72
2023-02-08T13:33:06.486Z,5.85
2023-02-08T13:34:48.820Z,6.05
2023-02-08T13:36:25.322Z,3.55
2023-02-08T13:38:06.185Z,6.22
2023-02-08T13:39:43.093Z,10.05
2023-02-08T13:41:18.297Z,5.85
2023-02-08T13:43:06.313Z,4.63
2023-02-08T13:44:39.048Z,4.50
2023-02-08T13:46:11.728Z,6.72
2023-02-08T13:47:49.829Z,4.30
2023-02-08T13:49:49.595Z,6.35
2023-02-08T13:52:00.129Z,8.90
2023-02-08T13:53:38.349Z,5.95
2023-02-08T13:55:29.113Z,6.95
2023-02-08T13:57:01.951Z,6.72
2023-02-08T13:58:52.364Z,5.90
2023-02-08T14:00:32.887Z,6.22
2023-02-08T14:02:17.890Z,5.60
2023-02-08T14:04:07.995Z,6.85
2023-02-08T14:05:50.319Z,7.60
2023-02-08T14:07:30.624Z,9.85
2023-02-08T14:09:28.081Z,7.35
2023-02-08T14:11:15.080Z,5.78
2023-02-08T14:12:55.770Z,6.55
2023-02-08T14:14:38.191Z,7.20
2023-02-08T14:16:40.451Z,6.10
2023-02-08T14:18:26.393Z,7.32
2023-02-08T14:20:03.524Z,6.60
2023-02-08T14:22:01.484Z,6.82
2023-02-08T14:23:45.554Z,5.30
2023-02-08T14:25:35.023Z,8.00
2023-02-08T14:27:21.929Z,6.75
2023-02-08T14:29:23.352Z,6.53
2023-02-08T14:31:07.580Z,4.50
2023-02-08T14:32:41.706Z,6.45
2023-02-08T14:34:29.829Z,6.35
2023-02-08T14:36:04.972Z,6.25
2023-02-08T14:37:37.431Z,4.72
2023-02-08T14:39:29.367Z,9.98
2023-02-08T14:41:03.174Z,4.85
2023-02-08T14:42:59.061Z,6.20
2023-02-08T14:44:41.977Z,7.75
2023-02-08T14:46:43.139Z,5.75
2023-02-08T14:48:35.897Z,7.47
2023-02-08T14:50:16.764Z,10.52
2023-02-08T14:51:59.922Z,5.47
2023-02-08T14:53:36.567Z,6.28
2023-02-08T14:55:15.643Z,5.95
2023-02-08T14:56:54.860Z,5.43
2023-02-08T14:58:30.481Z,6.20
2023-02-08T15:00:08.941Z,5.93
2023-02-08T15:01:44.075Z,6.60
2023-02-08T15:03:18.335Z,7.53
2023-02-08T15:04:50.412Z,8.55
2023-02-08T15:06:49.846Z,6.13
2023-02-08T15:08:22.267Z,5.50
2023-02-08T15:09:54.975Z,7.72
2023-02-08T15:11:29.644Z,8.60
2023-02-08T15:13:06.739Z,8.15
2023-02-08T15:14:41.528Z,4.78
2023-02-08T15:16:14.752Z,6.47
2023-02-08T15:17:49.613Z,7.53
2023-02-08T15:19:30.478Z,7.65
2023-02-08T15:21:05.289Z,9.68
2023-02-08T15:22:40.543Z,5.18
2023-02-08T15:24:18.709Z,7.03
2023-02-08T15:25:59.841Z,5.25
2023-02-08T15:27:33.778Z,8.15
2023-02-08T15:29:42.805Z,7.93
2023-02-08T15:31:21.735Z,6.40
2023-02-08T15:33:00.404Z,5.47
2023-02-08T15:34:32.795Z,6.13
2023-02-08T15:36:16.225Z,5.88
2023-02-08T15:37:48.279Z,6.03
2023-02-08T15:39:34.092Z,3.33
2023-02-08T15:41:58.179Z,6.50
2023-02-08T15:43:31.098Z,6.15
2023-02-08T15:46:40.541Z,3.80
2023-02-08T15:48:13.346Z,8.25
2023-02-08T15:49:50.132Z,5.20
2023-02-08T15:51:24.496Z,6.53
2023-02-08T15:53:06.875Z,5.93
2023-02-08T15:54:39.091Z,7.10
2023-02-08T15:56:35.406Z,6.50
2023-02-08T15:58:31.515Z,7.22
2023-02-08T16:00:07.462Z,8.85
2023-02-08T16:01:40.571Z,3.97
2023-02-08T16:03:44.210Z,4.68
2023-02-08T16:05:27.981Z,6.65
2023-02-08T16:07:00.963Z,5.15
2023-02-08T16:10:07.797Z,5.82
2023-02-08T16:11:39.901Z,6.82
2023-02-08T16:13:23.329Z,5.97
2023-02-08T16:15:01.241Z,5.22
2023-02-08T16:16:41.316Z,8.25
2023-02-08T16:18:31.466Z,11.60
2023-02-08T16:20:26.478Z,9.52
2023-02-08T16:22:21.466Z,7.53
2023-02-08T16:23:56.904Z,7.05
2023-02-08T16:25:52.897Z,7.05
2023-02-08T16:27:31.101Z,7.03
2023-02-08T16:29:06.163Z,7.55
2023-02-08T16:30:38.405Z,7.82
2023-02-08T16:32:34.345Z,7.75
2023-02-08T16:34:08.843Z,9.68
2023-02-08T16:35:41.156Z,10.73
2023-02-08T16:37:29.342Z,7.93
2023-02-08T16:39:22.613Z,9.85
2023-02-08T16:40:59.283Z,10.60
2023-02-08T16:42:40.566Z,9.70
2023-02-08T16:44:19.769Z,7.00
2023-02-08T16:46:13.244Z,8.00
2023-02-08T16:47:54.597Z,6.78
2023-02-08T16:49:27.384Z,7.55
2023-02-08T16:51:00.397Z,8.52
2023-02-08T16:52:35.654Z,7.10
2023-02-08T16:54:08.068Z,6.50
2023-02-08T16:55:40.485Z,7.82
2023-02-08T16:57:13.073Z,8.27
2023-02-08T16:58:45.399Z,10.18
2023-02-08T17:00:22.979Z,8.68
2023-02-08T17:01:56.787Z,8.38
2023-02-08T17:03:30.369Z,9.55
2023-02-08T17:05:04.672Z,8.07
2023-02-08T17:06:47.407Z,5.47
2023-02-08T17:08:34.499Z,9.85
2023-02-08T17:10:17.324Z,8.27
2023-02-08T17:11:56.011Z,9.93
2023-02-08T17:13:32.980Z,10.43
2023-02-08T17:15:15.924Z,13.55
2023-02-08T17:16:57.163Z,9.77
2023-02-08T17:18:29.318Z,12.23
2023-02-08T17:20:25.586Z,9.93
2023-02-08T17:22:02.358Z,10.43
2023-02-08T17:23:38.343Z,10.32
2023-02-08T17:26:49.757Z,10.10
2023-02-08T17:28:34.704Z,9.90
2023-02-08T17:30:18.493Z,16.58
2023-02-08T17:31:58.207Z,9.85
2023-02-08T17:33:36.892Z,10.52
2023-02-08T17:35:13.395Z,9.00
2023-02-08T17:36:49.098Z,8.18
2023-02-08T17:38:24.474Z,10.02
2023-02-08T17:39:59.132Z,10.15
2023-02-08T17:41:31.460Z,8.57
2023-02-08T17:43:09.816Z,10.15
2023-02-08T17:44:41.940Z,14.18
2023-02-08T17:46:17.369Z,12.93
2023-02-08T17:47:49.620Z,9.68
2023-02-08T17:49:21.779Z,14.15
2023-02-08T17:50:53.975Z,14.63
2023-02-08T17:52:26.398Z,13.95
2023-02-08T17:54:05.368Z,15.30
2023-02-08T17:55:37.498Z,11.75
2023-02-08T17:57:11.593Z,17.08
2023-02-08T17:58:44.470Z,14.15
2023-02-08T18:00:21.808Z,11.25
2023-02-08T18:01:54.186Z,13.18
2023-02-08T18:03:26.649Z,14.68
2023-02-08T18:05:02.223Z,12.50
2023-02-08T18:06:34.619Z,12.85
2023-02-08T18:08:06.755Z,10.40
2023-02-08T18:09:42.684Z,10.98
2023-02-08T18:11:21.711Z,10.80
2023-02-08T18:12:55.970Z,10.32
2023-02-08T18:14:28.002Z,8.68
2023-02-08T18:16:07.328Z,8.68
2023-02-08T18:17:40.149Z,11.23
2023-02-08T18:19:12.246Z,9.05
2023-02-08T18:20:46.158Z,9.95
2023-02-08T18:22:19.177Z,9.20
2023-02-08T18:25:23.290Z,9.55
2023-02-08T18:26:55.341Z,11.32
2023-02-08T18:28:27.528Z,12.40
2023-02-08T18:30:00.338Z,12.20
2023-02-08T18:31:32.667Z,10.88
2023-02-08T18:33:04.992Z,8.38
2023-02-08T18:34:37.468Z,7.07
2023-02-08T18:36:13.281Z,11.82
2023-02-08T18:37:49.602Z,9.80
2023-02-08T18:39:24.622Z,12.93
2023-02-08T18:40:56.870Z,12.13
2023-02-08T18:42:29.117Z,14.95
2023-02-08T18:44:02.663Z,18.70
2023-02-08T18:45:35.125Z,14.85
2023-02-08T18:47:09.169Z,14.27
2023-02-08T18:48:41.785Z,14.70
2023-02-08T18:50:14.029Z,12.20
2023-02-08T18:51:47.530Z,12.73
2023-02-08T18:53:19.742Z,15.60
2023-02-08T18:54:51.972Z,16.17
2023-02-08T18:56:26.264Z,16.23
2023-02-08T18:57:58.581Z,14.50
2023-02-08T18:59:30.742Z,11.00
2023-02-08T19:01:12.330Z,13.40
2023-02-08T19:02:46.420Z,9.35
2023-02-08T19:04:18.500Z,11.93
2023-02-08T19:05:50.896Z,11.15
2023-02-08T19:07:22.930Z,11.80
2023-02-08T19:08:56.878Z,11.57
2023-02-08T19:10:29.136Z,13.25
2023-02-08T19:12:01.271Z,10.80
2023-02-08T19:13:35.738Z,13.27
2023-02-08T19:15:08.147Z,12.15
2023-02-08T19:16:43.212Z,10.80
2023-02-08T19:18:15.267Z,13.95
2023-02-08T19:19:47.488Z,12.53
2023-02-08T19:21:20.606Z,14.15
2023-02-08T19:22:52.647Z,10.75
2023-02-08T19:24:25.027Z,12.23
2023-02-08T19:25:57.107Z,12.38
2023-02-08T19:27:29.769Z,13.43
2023-02-08T19:29:03.633Z,13.68
2023-02-08T19:30:35.857Z,14.20
2023-02-08T19:32:08.402Z,10.63
2023-02-08T19:33:43.252Z,11.60
2023-02-08T19:35:15.477Z,10.32
2023-02-08T19:36:53.075Z,11.37
2023-02-08T19:38:25.146Z,15.32
2023-02-08T19:39:57.244Z,11.43
2023-02-08T19:41:33.492Z,12.43
2023-02-08T19:43:05.549Z,15.10
2023-02-08T19:44:39.993Z,14.23
2023-02-08T19:46:17.267Z,12.63
2023-02-08T19:47:51.977Z,14.80
2023-02-08T19:49:26.205Z,12.60
2023-02-08T19:51:00.688Z,16.30
2023-02-08T19:52:32.775Z,10.25
2023-02-08T19:54:08.676Z,14.32
2023-02-08T19:55:40.984Z,11.23
2023-02-08T19:57:16.151Z,11.18
2023-02-08T19:58:48.590Z,14.70
2023-02-08T20:00:24.000Z,13.57
2023-02-08T20:01:56.425Z,10.77
2023-02-08T20:03:28.679Z,11.23
2023-02-08T20:05:00.770Z,11.20
2023-02-08T20:06:35.731Z,9.87
2023-02-08T20:08:07.952Z,11.50
2023-02-08T20:09:40.929Z,11.73
2023-02-08T20:11:25.377Z,9.88
2023-02-08T20:12:57.422Z,8.65
2023-02-08T20:14:34.885Z,8.05
2023-02-08T20:16:07.319Z,11.27
2023-02-08T20:17:39.593Z,10.48
2023-02-08T20:19:12.857Z,9.02
2023-02-08T20:20:47.070Z,9.05
2023-02-08T20:22:19.213Z,12.70
2023-02-08T20:23:51.414Z,11.95
2023-02-08T20:25:24.047Z,11.25
2023-02-08T20:26:55.988Z,10.57
2023-02-08T20:28:27.962Z,14.23
2023-02-08T20:30:00.185Z,13.77
2023-02-08T20:31:34.884Z,17.88
2023-02-08T20:33:07.213Z,8.90
2023-02-08T20:34:40.980Z,9.63
2023-02-08T20:36:23.397Z,9.07
2023-02-08T20:37:55.577Z,9.00
2023-02-08T20:39:27.603Z,9.77
2023-02-08T20:41:06.957Z,10.65
2023-02-08T20:42:39.312Z,14.63
2023-02-08T20:44:17.012Z,9.40
2023-02-08T20:45:49.091Z,11.23
2023-02-08T20:47:22.043Z,8.57
2023-02-08T20:50:31.081Z,13.15
2023-02-08T20:52:03.181Z,8.85
2023-02-08T20:53:39.782Z,8.60
2023-02-08T20:55:18.694Z,13.43
2023-02-08T20:56:51.479Z,9.13
2023-02-08T20:58:23.497Z,10.23
2023-02-08T20:59:55.545Z,11.33
2023-02-08T21:01:28.500Z,11.18
2023-02-08T21:04:32.938Z,12.73
2023-02-08T21:06:19.028Z,11.65
2023-02-08T21:07:51.392Z,10.15
2023-02-08T21:09:23.758Z,11.55
2023-02-08T21:10:55.973Z,9.13
2023-02-08T21:12:27.959Z,12.20
2023-02-08T21:14:00.883Z,7.80
2023-02-08T21:15:33.333Z,11.25
2023-02-08T21:17:05.724Z,11.43
2023-02-08T21:18:38.076Z,11.85
2023-02-08T21:20:12.146Z,11.88
2023-02-08T21:21:44.674Z,12.27
2023-02-08T21:23:16.877Z,14.80
2023-02-08T21:24:49.085Z,9.98
2023-02-08T21:26:21.441Z,11.10
2023-02-08T21:27:53.654Z,9.60
2023-02-08T21:29:26.137Z,11.85
2023-02-08T21:31:09.777Z,9.23
2023-02-08T21:32:43.375Z,9.23
2023-02-08T21:34:15.567Z,12.55
2023-02-08T21:35:47.682Z,11.63
2023-02-08T21:37:19.848Z,10.57
2023-02-08T21:38:52.155Z,11.85